sensor_id;sensor_type;location;lat;lon;timestamp;P1;durP1;ratioP1;P2;durP2;ratioP2
44476;SDS011;30180;44.788;10.366;2023-03-21T00:00:52;4.50;;;2.83;;
44476;SDS011;30180;44.788;10.366;2023-03-21T00:03:21;4.55;;;2.92;;
44476;SDS011;30180;44.788;10.366;2023-03-21T00:05:50;5.18;;;3.00;;
44476;SDS011;30180;44.788;10.366;2023-03-21T00:08:19;4.18;;;2.72;;
44476;SDS011;30180;44.788;10.366;2023-03-21T00:10:55;5.03;;;2.88;;
44476;SDS011;30180;44.788;10.366;2023-03-21T00:13:25;4.80;;;3.13;;
44476;SDS011;30180;44.788;10.366;2023-03-21T00:16:02;5.00;;;2.80;;
44476;SDS011;30180;44.788;10.366;2023-03-21T00:18:45;5.47;;;3.03;;
44476;SDS011;30180;44.788;10.366;2023-03-21T00:21:18;4.05;;;2.80;;
44476;SDS011;30180;44.788;10.366;2023-03-21T00:24:07;6.47;;;2.75;;
44476;SDS011;30180;44.788;10.366;2023-03-21T00:26:37;5.60;;;3.08;;
44476;SDS011;30180;44.788;10.366;2023-03-21T00:29:05;4.45;;;2.90;;
44476;SDS011;30180;44.788;10.366;2023-03-21T00:31:34;4.03;;;2.60;;
44476;SDS011;30180;44.788;10.366;2023-03-21T00:34:02;4.50;;;2.72;;
44476;SDS011;30180;44.788;10.366;2023-03-21T00:36:30;4.43;;;3.00;;
44476;SDS011;30180;44.788;10.366;2023-03-21T00:38:59;4.03;;;2.58;;
44476;SDS011;30180;44.788;10.366;2023-03-21T00:41:27;5.25;;;3.53;;
44476;SDS011;30180;44.788;10.366;2023-03-21T00:44:12;5.20;;;2.83;;
44476;SDS011;30180;44.788;10.366;2023-03-21T00:46:41;4.80;;;2.77;;
44476;SDS011;30180;44.788;10.366;2023-03-21T00:49:26;4.50;;;2.90;;
44476;SDS011;30180;44.788;10.366;2023-03-21T00:51:58;4.10;;;2.70;;
44476;SDS011;30180;44.788;10.366;2023-03-21T00:54:42;4.57;;;2.70;;
44476;SDS011;30180;44.788;10.366;2023-03-21T00:57:10;4.13;;;2.65;;
44476;SDS011;30180;44.788;10.366;2023-03-21T00:59:40;4.63;;;2.53;;
44476;SDS011;30180;44.788;10.366;2023-03-21T01:02:08;4.85;;;2.75;;
44476;SDS011;30180;44.788;10.366;2023-03-21T01:04:40;4.47;;;2.80;;
44476;SDS011;30180;44.788;10.366;2023-03-21T01:07:08;4.13;;;2.35;;
44476;SDS011;30180;44.788;10.366;2023-03-21T01:09:36;4.68;;;2.47;;
44476;SDS011;30180;44.788;10.366;2023-03-21T01:12:05;5.63;;;2.90;;
44476;SDS011;30180;44.788;10.366;2023-03-21T01:14:33;4.65;;;2.88;;
44476;SDS011;30180;44.788;10.366;2023-03-21T01:17:03;5.20;;;2.80;;
44476;SDS011;30180;44.788;10.366;2023-03-21T01:19:32;4.17;;;2.60;;
44476;SDS011;30180;44.788;10.366;2023-03-21T01:22:16;4.90;;;2.47;;
44476;SDS011;30180;44.788;10.366;2023-03-21T01:24:44;4.72;;;2.60;;
44476;SDS011;30180;44.788;10.366;2023-03-21T01:27:23;4.32;;;2.70;;
44476;SDS011;30180;44.788;10.366;2023-03-21T01:29:51;4.90;;;2.40;;
44476;SDS011;30180;44.788;10.366;2023-03-21T01:32:21;4.47;;;2.60;;
44476;SDS011;30180;44.788;10.366;2023-03-21T01:34:49;4.35;;;2.83;;
44476;SDS011;30180;44.788;10.366;2023-03-21T01:37:18;4.13;;;2.90;;
44476;SDS011;30180;44.788;10.366;2023-03-21T01:39:46;4.28;;;2.60;;
44476;SDS011;30180;44.788;10.366;2023-03-21T01:42:14;4.30;;;3.00;;
44476;SDS011;30180;44.788;10.366;2023-03-21T01:44:55;3.97;;;2.65;;
44476;SDS011;30180;44.788;10.366;2023-03-21T01:47:26;3.80;;;2.58;;
44476;SDS011;30180;44.788;10.366;2023-03-21T01:49:55;3.42;;;2.30;;
44476;SDS011;30180;44.788;10.366;2023-03-21T01:52:26;4.18;;;2.58;;
44476;SDS011;30180;44.788;10.366;2023-03-21T01:55:04;5.18;;;2.67;;
44476;SDS011;30180;44.788;10.366;2023-03-21T01:57:39;5.53;;;2.65;;
44476;SDS011;30180;44.788;10.366;2023-03-21T02:00:29;4.72;;;2.80;;
44476;SDS011;30180;44.788;10.366;2023-03-21T02:03:00;4.18;;;2.83;;
44476;SDS011;30180;44.788;10.366;2023-03-21T02:05:47;4.38;;;2.40;;
44476;SDS011;30180;44.788;10.366;2023-03-21T02:08:20;3.97;;;2.70;;
44476;SDS011;30180;44.788;10.366;2023-03-21T02:11:04;3.45;;;2.40;;
44476;SDS011;30180;44.788;10.366;2023-03-21T02:13:33;3.97;;;2.55;;
44476;SDS011;30180;44.788;10.366;2023-03-21T02:16:04;5.45;;;2.63;;
44476;SDS011;30180;44.788;10.366;2023-03-21T02:18:40;5.05;;;2.58;;
44476;SDS011;30180;44.788;10.366;2023-03-21T02:24:36;4.55;;;3.10;;
44476;SDS011;30180;44.788;10.366;2023-03-21T02:27:36;4.50;;;2.67;;
44476;SDS011;30180;44.788;10.366;2023-03-21T02:30:27;3.50;;;2.40;;
44476;SDS011;30180;44.788;10.366;2023-03-21T02:36:25;3.30;;;2.40;;
44476;SDS011;30180;44.788;10.366;2023-03-21T02:39:01;4.67;;;2.80;;
44476;SDS011;30180;44.788;10.366;2023-03-21T02:41:42;3.65;;;2.60;;
44476;SDS011;30180;44.788;10.366;2023-03-21T02:44:17;4.18;;;2.50;;
44476;SDS011;30180;44.788;10.366;2023-03-21T02:46:49;3.03;;;2.28;;
44476;SDS011;30180;44.788;10.366;2023-03-21T02:49:32;3.95;;;2.55;;
44476;SDS011;30180;44.788;10.366;2023-03-21T02:52:07;4.13;;;2.80;;
44476;SDS011;30180;44.788;10.366;2023-03-21T02:57:18;3.40;;;2.40;;
44476;SDS011;30180;44.788;10.366;2023-03-21T02:59:52;4.85;;;3.00;;
44476;SDS011;30180;44.788;10.366;2023-03-21T03:02:30;3.95;;;2.40;;
44476;SDS011;30180;44.788;10.366;2023-03-21T03:04:58;3.83;;;2.22;;
44476;SDS011;30180;44.788;10.366;2023-03-21T03:07:38;4.50;;;2.50;;
44476;SDS011;30180;44.788;10.366;2023-03-21T03:10:22;3.55;;;2.35;;
44476;SDS011;30180;44.788;10.366;2023-03-21T03:13:05;3.20;;;2.17;;
44476;SDS011;30180;44.788;10.366;2023-03-21T03:15:46;4.00;;;2.53;;
44476;SDS011;30180;44.788;10.366;2023-03-21T03:18:21;4.75;;;3.00;;
44476;SDS011;30180;44.788;10.366;2023-03-21T03:20:59;3.97;;;2.30;;
44476;SDS011;30180;44.788;10.366;2023-03-21T03:23:35;4.20;;;2.50;;
44476;SDS011;30180;44.788;10.366;2023-03-21T03:26:11;3.25;;;2.10;;
44476;SDS011;30180;44.788;10.366;2023-03-21T03:28:44;4.68;;;2.97;;
44476;SDS011;30180;44.788;10.366;2023-03-21T03:31:17;3.67;;;2.20;;
44476;SDS011;30180;44.788;10.366;2023-03-21T03:33:52;4.47;;;2.60;;
44476;SDS011;30180;44.788;10.366;2023-03-21T03:38:58;3.35;;;2.20;;
44476;SDS011;30180;44.788;10.366;2023-03-21T03:41:32;3.47;;;2.30;;
44476;SDS011;30180;44.788;10.366;2023-03-21T03:44:24;3.90;;;2.50;;
44476;SDS011;30180;44.788;10.366;2023-03-21T03:46:55;3.47;;;2.35;;
44476;SDS011;30180;44.788;10.366;2023-03-21T03:49:28;3.67;;;2.30;;
44476;SDS011;30180;44.788;10.366;2023-03-21T03:52:03;3.38;;;1.92;;
44476;SDS011;30180;44.788;10.366;2023-03-21T03:54:36;3.08;;;2.28;;
44476;SDS011;30180;44.788;10.366;2023-03-21T03:57:08;4.38;;;2.80;;
44476;SDS011;30180;44.788;10.366;2023-03-21T03:59:38;4.57;;;2.50;;
44476;SDS011;30180;44.788;10.366;2023-03-21T04:02:08;3.90;;;2.35;;
44476;SDS011;30180;44.788;10.366;2023-03-21T04:04:37;3.58;;;2.03;;
44476;SDS011;30180;44.788;10.366;2023-03-21T04:07:05;3.60;;;2.42;;
44476;SDS011;30180;44.788;10.366;2023-03-21T04:09:34;3.53;;;2.38;;
44476;SDS011;30180;44.788;10.366;2023-03-21T04:12:11;3.83;;;2.53;;
44476;SDS011;30180;44.788;10.366;2023-03-21T04:14:40;3.25;;;2.38;;
44476;SDS011;30180;44.788;10.366;2023-03-21T04:17:12;3.55;;;2.00;;
44476;SDS011;30180;44.788;10.366;2023-03-21T04:19:41;3.85;;;2.42;;
44476;SDS011;30180;44.788;10.366;2023-03-21T04:22:11;3.30;;;2.42;;
44476;SDS011;30180;44.788;10.366;2023-03-21T04:24:39;3.42;;;2.30;;
44476;SDS011;30180;44.788;10.366;2023-03-21T04:27:08;3.33;;;2.22;;
44476;SDS011;30180;44.788;10.366;2023-03-21T04:29:38;4.00;;;2.40;;
44476;SDS011;30180;44.788;10.366;2023-03-21T04:32:06;4.35;;;2.42;;
44476;SDS011;30180;44.788;10.366;2023-03-21T04:34:42;4.32;;;2.40;;
44476;SDS011;30180;44.788;10.366;2023-03-21T04:37:15;3.17;;;2.10;;
44476;SDS011;30180;44.788;10.366;2023-03-21T04:39:44;3.53;;;2.33;;
44476;SDS011;30180;44.788;10.366;2023-03-21T04:42:13;2.70;;;1.85;;
44476;SDS011;30180;44.788;10.366;2023-03-21T04:44:45;3.80;;;2.40;;
44476;SDS011;30180;44.788;10.366;2023-03-21T04:47:14;3.17;;;2.17;;
44476;SDS011;30180;44.788;10.366;2023-03-21T04:49:45;3.20;;;2.28;;
44476;SDS011;30180;44.788;10.366;2023-03-21T04:52:14;2.25;;;1.80;;
44476;SDS011;30180;44.788;10.366;2023-03-21T04:54:43;3.45;;;2.10;;
44476;SDS011;30180;44.788;10.366;2023-03-21T04:57:11;3.35;;;2.00;;
44476;SDS011;30180;44.788;10.366;2023-03-21T04:59:40;4.43;;;2.20;;
44476;SDS011;30180;44.788;10.366;2023-03-21T05:02:09;2.75;;;2.00;;
44476;SDS011;30180;44.788;10.366;2023-03-21T05:04:38;3.00;;;2.00;;
44476;SDS011;30180;44.788;10.366;2023-03-21T05:07:07;3.08;;;2.05;;
44476;SDS011;30180;44.788;10.366;2023-03-21T05:09:35;2.90;;;2.00;;
44476;SDS011;30180;44.788;10.366;2023-03-21T05:12:03;2.58;;;2.00;;
44476;SDS011;30180;44.788;10.366;2023-03-21T05:14:32;3.10;;;2.10;;
44476;SDS011;30180;44.788;10.366;2023-03-21T05:17:00;3.30;;;2.10;;
44476;SDS011;30180;44.788;10.366;2023-03-21T05:19:32;3.03;;;2.00;;
44476;SDS011;30180;44.788;10.366;2023-03-21T05:22:07;3.53;;;2.00;;
44476;SDS011;30180;44.788;10.366;2023-03-21T05:24:39;3.30;;;2.17;;
44476;SDS011;30180;44.788;10.366;2023-03-21T05:27:08;2.65;;;1.77;;
44476;SDS011;30180;44.788;10.366;2023-03-21T05:29:39;3.10;;;2.10;;
44476;SDS011;30180;44.788;10.366;2023-03-21T05:32:07;4.20;;;2.17;;
44476;SDS011;30180;44.788;10.366;2023-03-21T05:34:37;3.22;;;2.17;;
44476;SDS011;30180;44.788;10.366;2023-03-21T05:37:05;3.15;;;1.73;;
44476;SDS011;30180;44.788;10.366;2023-03-21T05:39:33;3.13;;;2.10;;
44476;SDS011;30180;44.788;10.366;2023-03-21T05:42:02;2.75;;;1.90;;
44476;SDS011;30180;44.788;10.366;2023-03-21T05:44:30;3.30;;;1.77;;
44476;SDS011;30180;44.788;10.366;2023-03-21T05:46:58;3.10;;;2.10;;
44476;SDS011;30180;44.788;10.366;2023-03-21T05:49:26;2.55;;;1.83;;
44476;SDS011;30180;44.788;10.366;2023-03-21T05:51:57;3.30;;;1.95;;
44476;SDS011;30180;44.788;10.366;2023-03-21T05:54:25;2.67;;;1.90;;
44476;SDS011;30180;44.788;10.366;2023-03-21T05:56:53;2.60;;;1.77;;
44476;SDS011;30180;44.788;10.366;2023-03-21T05:59:22;3.03;;;1.98;;
44476;SDS011;30180;44.788;10.366;2023-03-21T06:01:50;3.42;;;1.95;;
44476;SDS011;30180;44.788;10.366;2023-03-21T06:04:18;4.07;;;1.90;;
44476;SDS011;30180;44.788;10.366;2023-03-21T06:06:46;3.35;;;2.22;;
44476;SDS011;30180;44.788;10.366;2023-03-21T06:09:17;3.35;;;2.03;;
44476;SDS011;30180;44.788;10.366;2023-03-21T06:11:46;2.92;;;1.90;;
44476;SDS011;30180;44.788;10.366;2023-03-21T06:14:16;3.55;;;1.80;;
44476;SDS011;30180;44.788;10.366;2023-03-21T06:16:45;3.40;;;2.00;;
44476;SDS011;30180;44.788;10.366;2023-03-21T06:19:13;3.38;;;2.00;;
44476;SDS011;30180;44.788;10.366;2023-03-21T06:21:42;3.17;;;2.10;;
44476;SDS011;30180;44.788;10.366;2023-03-21T06:24:10;2.95;;;1.70;;
44476;SDS011;30180;44.788;10.366;2023-03-21T06:26:40;2.72;;;1.80;;
44476;SDS011;30180;44.788;10.366;2023-03-21T06:29:09;4.30;;;2.25;;
44476;SDS011;30180;44.788;10.366;2023-03-21T06:31:37;2.60;;;1.70;;
44476;SDS011;30180;44.788;10.366;2023-03-21T06:34:06;2.95;;;1.70;;
44476;SDS011;30180;44.788;10.366;2023-03-21T06:36:36;2.40;;;1.95;;
44476;SDS011;30180;44.788;10.366;2023-03-21T06:39:04;2.75;;;1.98;;
44476;SDS011;30180;44.788;10.366;2023-03-21T06:41:34;3.85;;;2.38;;
44476;SDS011;30180;44.788;10.366;2023-03-21T06:44:03;2.88;;;1.90;;
44476;SDS011;30180;44.788;10.366;2023-03-21T06:46:32;3.65;;;2.28;;
44476;SDS011;30180;44.788;10.366;2023-03-21T06:49:00;5.97;;;2.17;;
44476;SDS011;30180;44.788;10.366;2023-03-21T06:51:28;4.97;;;2.00;;
44476;SDS011;30180;44.788;10.366;2023-03-21T06:53:57;7.85;;;2.30;;
44476;SDS011;30180;44.788;10.366;2023-03-21T06:56:26;6.88;;;2.80;;
44476;SDS011;30180;44.788;10.366;2023-03-21T06:58:54;5.03;;;2.58;;
44476;SDS011;30180;44.788;10.366;2023-03-21T07:01:24;6.32;;;2.65;;
44476;SDS011;30180;44.788;10.366;2023-03-21T07:03:53;8.93;;;2.40;;
44476;SDS011;30180;44.788;10.366;2023-03-21T07:06:23;7.88;;;2.35;;
44476;SDS011;30180;44.788;10.366;2023-03-21T07:08:52;6.38;;;2.50;;
44476;SDS011;30180;44.788;10.366;2023-03-21T07:11:22;6.50;;;2.35;;
44476;SDS011;30180;44.788;10.366;2023-03-21T07:13:51;4.75;;;2.45;;
44476;SDS011;30180;44.788;10.366;2023-03-21T07:16:19;5.25;;;2.38;;
44476;SDS011;30180;44.788;10.366;2023-03-21T07:18:49;4.80;;;2.38;;
44476;SDS011;30180;44.788;10.366;2023-03-21T07:21:17;4.80;;;2.38;;
44476;SDS011;30180;44.788;10.366;2023-03-21T07:23:46;5.32;;;2.45;;
44476;SDS011;30180;44.788;10.366;2023-03-21T07:26:15;8.40;;;2.50;;
44476;SDS011;30180;44.788;10.366;2023-03-21T07:28:44;4.97;;;2.15;;
44476;SDS011;30180;44.788;10.366;2023-03-21T07:31:13;4.15;;;2.25;;
44476;SDS011;30180;44.788;10.366;2023-03-21T07:33:43;6.33;;;2.40;;
44476;SDS011;30180;44.788;10.366;2023-03-21T07:36:13;6.95;;;2.10;;
44476;SDS011;30180;44.788;10.366;2023-03-21T07:38:42;3.55;;;2.03;;
44476;SDS011;30180;44.788;10.366;2023-03-21T07:41:10;4.22;;;2.10;;
44476;SDS011;30180;44.788;10.366;2023-03-21T07:43:39;6.18;;;2.20;;
44476;SDS011;30180;44.788;10.366;2023-03-21T07:46:07;4.32;;;2.40;;
44476;SDS011;30180;44.788;10.366;2023-03-21T07:48:36;6.47;;;2.20;;
44476;SDS011;30180;44.788;10.366;2023-03-21T07:51:04;3.65;;;2.15;;
44476;SDS011;30180;44.788;10.366;2023-03-21T07:53:34;4.03;;;2.20;;
44476;SDS011;30180;44.788;10.366;2023-03-21T07:56:03;7.70;;;3.67;;
44476;SDS011;30180;44.788;10.366;2023-03-21T07:58:32;6.00;;;3.42;;
44476;SDS011;30180;44.788;10.366;2023-03-21T08:01:00;17.02;;;4.60;;
44476;SDS011;30180;44.788;10.366;2023-03-21T08:03:29;9.18;;;4.22;;
44476;SDS011;30180;44.788;10.366;2023-03-21T08:05:59;15.77;;;5.22;;
44476;SDS011;30180;44.788;10.366;2023-03-21T08:08:27;8.75;;;4.43;;
44476;SDS011;30180;44.788;10.366;2023-03-21T08:10:57;10.77;;;4.00;;
44476;SDS011;30180;44.788;10.366;2023-03-21T08:13:25;11.98;;;4.25;;
44476;SDS011;30180;44.788;10.366;2023-03-21T08:15:54;14.02;;;4.05;;
44476;SDS011;30180;44.788;10.366;2023-03-21T08:18:22;9.05;;;3.75;;
44476;SDS011;30180;44.788;10.366;2023-03-21T08:20:51;10.13;;;3.67;;
44476;SDS011;30180;44.788;10.366;2023-03-21T08:23:20;10.73;;;3.60;;
44476;SDS011;30180;44.788;10.366;2023-03-21T08:25:49;10.73;;;3.30;;
44476;SDS011;30180;44.788;10.366;2023-03-21T08:28:20;12.60;;;3.08;;
44476;SDS011;30180;44.788;10.366;2023-03-21T08:30:48;10.95;;;3.72;;
44476;SDS011;30180;44.788;10.366;2023-03-21T08:33:17;8.95;;;3.13;;
44476;SDS011;30180;44.788;10.366;2023-03-21T08:35:45;7.28;;;2.78;;
44476;SDS011;30180;44.788;10.366;2023-03-21T08:38:13;8.73;;;2.72;;
44476;SDS011;30180;44.788;10.366;2023-03-21T08:40:42;8.25;;;2.80;;
44476;SDS011;30180;44.788;10.366;2023-03-21T08:43:10;7.32;;;3.08;;
44476;SDS011;30180;44.788;10.366;2023-03-21T08:45:41;6.50;;;2.88;;
44476;SDS011;30180;44.788;10.366;2023-03-21T08:48:09;6.93;;;2.95;;
44476;SDS011;30180;44.788;10.366;2023-03-21T08:50:38;6.80;;;3.10;;
44476;SDS011;30180;44.788;10.366;2023-03-21T08:53:06;4.63;;;2.60;;
44476;SDS011;30180;44.788;10.366;2023-03-21T08:55:35;5.38;;;2.92;;
44476;SDS011;30180;44.788;10.366;2023-03-21T08:58:04;5.40;;;2.65;;
44476;SDS011;30180;44.788;10.366;2023-03-21T09:00:33;5.13;;;2.80;;
44476;SDS011;30180;44.788;10.366;2023-03-21T09:03:02;6.75;;;2.80;;
44476;SDS011;30180;44.788;10.366;2023-03-21T09:05:31;8.20;;;2.50;;
44476;SDS011;30180;44.788;10.366;2023-03-21T09:07:59;7.63;;;2.42;;
44476;SDS011;30180;44.788;10.366;2023-03-21T09:10:28;5.60;;;2.60;;
44476;SDS011;30180;44.788;10.366;2023-03-21T09:12:57;6.88;;;2.55;;
44476;SDS011;30180;44.788;10.366;2023-03-21T09:15:25;4.78;;;2.38;;
44476;SDS011;30180;44.788;10.366;2023-03-21T09:17:55;6.05;;;2.45;;
44476;SDS011;30180;44.788;10.366;2023-03-21T09:20:40;5.40;;;2.55;;
44476;SDS011;30180;44.788;10.366;2023-03-21T09:23:10;6.93;;;2.22;;
44476;SDS011;30180;44.788;10.366;2023-03-21T09:25:39;7.28;;;2.78;;
44476;SDS011;30180;44.788;10.366;2023-03-21T09:28:07;5.72;;;2.90;;
44476;SDS011;30180;44.788;10.366;2023-03-21T09:30:36;6.65;;;2.33;;
44476;SDS011;30180;44.788;10.366;2023-03-21T09:33:04;5.25;;;2.42;;
44476;SDS011;30180;44.788;10.366;2023-03-21T09:35:39;6.22;;;2.55;;
44476;SDS011;30180;44.788;10.366;2023-03-21T09:38:08;8.32;;;2.90;;
44476;SDS011;30180;44.788;10.366;2023-03-21T09:40:41;15.40;;;3.47;;
44476;SDS011;30180;44.788;10.366;2023-03-21T09:43:23;7.15;;;2.40;;
44476;SDS011;30180;44.788;10.366;2023-03-21T09:46:02;8.27;;;3.00;;
44476;SDS011;30180;44.788;10.366;2023-03-21T09:48:37;5.25;;;2.40;;
44476;SDS011;30180;44.788;10.366;2023-03-21T09:51:24;7.90;;;2.40;;
44476;SDS011;30180;44.788;10.366;2023-03-21T09:53:56;6.22;;;2.63;;
44476;SDS011;30180;44.788;10.366;2023-03-21T09:56:29;15.88;;;2.75;;
44476;SDS011;30180;44.788;10.366;2023-03-21T09:58:58;9.90;;;2.50;;
44476;SDS011;30180;44.788;10.366;2023-03-21T10:01:28;9.93;;;2.50;;
44476;SDS011;30180;44.788;10.366;2023-03-21T10:04:01;7.38;;;2.65;;
44476;SDS011;30180;44.788;10.366;2023-03-21T10:06:33;4.25;;;2.40;;
44476;SDS011;30180;44.788;10.366;2023-03-21T10:09:06;5.97;;;2.20;;
44476;SDS011;30180;44.788;10.366;2023-03-21T10:11:41;7.55;;;2.60;;
44476;SDS011;30180;44.788;10.366;2023-03-21T10:14:13;8.20;;;2.20;;
44476;SDS011;30180;44.788;10.366;2023-03-21T10:16:45;9.65;;;2.30;;
44476;SDS011;30180;44.788;10.366;2023-03-21T10:19:18;5.70;;;2.50;;
44476;SDS011;30180;44.788;10.366;2023-03-21T10:21:48;5.90;;;2.38;;
44476;SDS011;30180;44.788;10.366;2023-03-21T10:24:29;6.85;;;3.00;;
44476;SDS011;30180;44.788;10.366;2023-03-21T10:26:59;4.97;;;2.17;;
44476;SDS011;30180;44.788;10.366;2023-03-21T10:29:30;5.35;;;2.38;;
44476;SDS011;30180;44.788;10.366;2023-03-21T10:32:02;6.47;;;2.42;;
44476;SDS011;30180;44.788;10.366;2023-03-21T10:34:32;4.70;;;2.35;;
44476;SDS011;30180;44.788;10.366;2023-03-21T10:37:05;5.93;;;2.85;;
44476;SDS011;30180;44.788;10.366;2023-03-21T10:39:34;9.38;;;2.88;;
44476;SDS011;30180;44.788;10.366;2023-03-21T10:42:06;11.45;;;2.40;;
44476;SDS011;30180;44.788;10.366;2023-03-21T10:44:45;9.13;;;2.38;;
44476;SDS011;30180;44.788;10.366;2023-03-21T10:47:18;6.25;;;2.22;;
44476;SDS011;30180;44.788;10.366;2023-03-21T10:49:47;6.18;;;2.20;;
44476;SDS011;30180;44.788;10.366;2023-03-21T10:52:34;5.25;;;2.30;;
44476;SDS011;30180;44.788;10.366;2023-03-21T10:55:14;9.38;;;2.80;;
44476;SDS011;30180;44.788;10.366;2023-03-21T10:57:46;8.52;;;3.03;;
44476;SDS011;30180;44.788;10.366;2023-03-21T11:00:20;7.00;;;2.72;;
44476;SDS011;30180;44.788;10.366;2023-03-21T11:02:51;8.70;;;2.95;;
44476;SDS011;30180;44.788;10.366;2023-03-21T11:05:21;6.60;;;3.03;;
44476;SDS011;30180;44.788;10.366;2023-03-21T11:07:57;7.40;;;3.20;;
44476;SDS011;30180;44.788;10.366;2023-03-21T11:10:27;9.70;;;3.10;;
44476;SDS011;30180;44.788;10.366;2023-03-21T11:13:01;6.55;;;2.95;;
44476;SDS011;30180;44.788;10.366;2023-03-21T11:15:37;7.40;;;3.17;;
44476;SDS011;30180;44.788;10.366;2023-03-21T11:18:20;6.78;;;3.10;;
44476;SDS011;30180;44.788;10.366;2023-03-21T11:20:50;9.07;;;3.40;;
44476;SDS011;30180;44.788;10.366;2023-03-21T11:23:23;6.20;;;3.10;;
44476;SDS011;30180;44.788;10.366;2023-03-21T11:25:55;9.05;;;3.38;;
44476;SDS011;30180;44.788;10.366;2023-03-21T11:28:28;11.07;;;3.47;;
44476;SDS011;30180;44.788;10.366;2023-03-21T11:31:01;5.75;;;2.83;;
44476;SDS011;30180;44.788;10.366;2023-03-21T11:33:31;7.68;;;3.42;;
44476;SDS011;30180;44.788;10.366;2023-03-21T11:36:02;7.55;;;3.50;;
44476;SDS011;30180;44.788;10.366;2023-03-21T11:41:05;7.55;;;3.40;;
44476;SDS011;30180;44.788;10.366;2023-03-21T11:43:35;8.38;;;3.42;;
44476;SDS011;30180;44.788;10.366;2023-03-21T11:46:05;10.63;;;4.00;;
44476;SDS011;30180;44.788;10.366;2023-03-21T11:48:37;12.07;;;4.27;;
44476;SDS011;30180;44.788;10.366;2023-03-21T11:51:09;14.00;;;4.53;;
44476;SDS011;30180;44.788;10.366;2023-03-21T11:53:49;9.18;;;4.03;;
44476;SDS011;30180;44.788;10.366;2023-03-21T11:56:24;9.95;;;4.15;;
44476;SDS011;30180;44.788;10.366;2023-03-21T11:59:03;10.35;;;3.88;;
44476;SDS011;30180;44.788;10.366;2023-03-21T12:01:43;12.95;;;4.40;;
44476;SDS011;30180;44.788;10.366;2023-03-21T12:04:21;6.97;;;3.50;;
44476;SDS011;30180;44.788;10.366;2023-03-21T12:07:01;7.68;;;3.80;;
44476;SDS011;30180;44.788;10.366;2023-03-21T12:09:40;9.93;;;3.22;;
44476;SDS011;30180;44.788;10.366;2023-03-21T12:12:14;5.68;;;3.42;;
44476;SDS011;30180;44.788;10.366;2023-03-21T12:15:05;7.65;;;3.45;;
44476;SDS011;30180;44.788;10.366;2023-03-21T12:17:42;6.90;;;3.40;;
44476;SDS011;30180;44.788;10.366;2023-03-21T12:20:22;7.25;;;3.03;;
44476;SDS011;30180;44.788;10.366;2023-03-21T12:23:01;8.52;;;3.22;;
44476;SDS011;30180;44.788;10.366;2023-03-21T12:25:44;6.03;;;3.05;;
44476;SDS011;30180;44.788;10.366;2023-03-21T12:28:22;11.07;;;3.00;;
44476;SDS011;30180;44.788;10.366;2023-03-21T12:30:59;5.95;;;2.70;;
44476;SDS011;30180;44.788;10.366;2023-03-21T12:33:54;6.38;;;3.00;;
44476;SDS011;30180;44.788;10.366;2023-03-21T12:36:34;6.43;;;2.97;;
44476;SDS011;30180;44.788;10.366;2023-03-21T12:39:23;6.03;;;2.78;;
44476;SDS011;30180;44.788;10.366;2023-03-21T12:42:01;7.55;;;3.28;;
44476;SDS011;30180;44.788;10.366;2023-03-21T12:44:42;5.75;;;3.10;;
44476;SDS011;30180;44.788;10.366;2023-03-21T12:47:16;6.05;;;3.00;;
44476;SDS011;30180;44.788;10.366;2023-03-21T12:49:52;4.93;;;2.72;;
44476;SDS011;30180;44.788;10.366;2023-03-21T12:52:24;6.60;;;2.75;;
44476;SDS011;30180;44.788;10.366;2023-03-21T12:54:57;6.40;;;2.95;;
44476;SDS011;30180;44.788;10.366;2023-03-21T12:57:31;5.50;;;2.90;;
44476;SDS011;30180;44.788;10.366;2023-03-21T13:00:09;4.10;;;2.65;;
44476;SDS011;30180;44.788;10.366;2023-03-21T13:02:43;5.97;;;3.03;;
44476;SDS011;30180;44.788;10.366;2023-03-21T13:05:16;5.82;;;2.80;;
44476;SDS011;30180;44.788;10.366;2023-03-21T13:07:49;5.43;;;2.78;;
44476;SDS011;30180;44.788;10.366;2023-03-21T13:10:21;14.10;;;3.90;;
44476;SDS011;30180;44.788;10.366;2023-03-21T13:12:54;13.95;;;3.60;;
44476;SDS011;30180;44.788;10.366;2023-03-21T13:15:37;9.57;;;3.67;;
44476;SDS011;30180;44.788;10.366;2023-03-21T13:18:24;10.82;;;3.03;;
44476;SDS011;30180;44.788;10.366;2023-03-21T13:21:00;9.95;;;3.17;;
44476;SDS011;30180;44.788;10.366;2023-03-21T13:23:32;7.85;;;3.35;;
44476;SDS011;30180;44.788;10.366;2023-03-21T13:26:02;7.28;;;3.03;;
44476;SDS011;30180;44.788;10.366;2023-03-21T13:28:37;16.50;;;3.92;;
44476;SDS011;30180;44.788;10.366;2023-03-21T13:31:17;18.33;;;4.95;;
44476;SDS011;30180;44.788;10.366;2023-03-21T13:33:47;16.15;;;3.88;;
44476;SDS011;30180;44.788;10.366;2023-03-21T13:36:17;11.80;;;3.60;;
44476;SDS011;30180;44.788;10.366;2023-03-21T13:38:51;15.40;;;3.67;;
44476;SDS011;30180;44.788;10.366;2023-03-21T13:41:24;11.23;;;3.45;;
44476;SDS011;30180;44.788;10.366;2023-03-21T13:44:07;10.30;;;3.20;;
44476;SDS011;30180;44.788;10.366;2023-03-21T13:46:43;14.15;;;3.95;;
44476;SDS011;30180;44.788;10.366;2023-03-21T13:49:27;8.45;;;4.00;;
44476;SDS011;30180;44.788;10.366;2023-03-21T13:51:58;10.43;;;3.83;;
44476;SDS011;30180;44.788;10.366;2023-03-21T13:54:47;8.40;;;3.53;;
44476;SDS011;30180;44.788;10.366;2023-03-21T13:57:34;11.05;;;4.00;;
44476;SDS011;30180;44.788;10.366;2023-03-21T14:00:16;8.15;;;3.83;;
44476;SDS011;30180;44.788;10.366;2023-03-21T14:02:56;9.82;;;3.25;;
44476;SDS011;30180;44.788;10.366;2023-03-21T14:05:26;10.88;;;4.03;;
44476;SDS011;30180;44.788;10.366;2023-03-21T14:07:55;14.57;;;3.47;;
44476;SDS011;30180;44.788;10.366;2023-03-21T14:10:41;6.38;;;3.65;;
44476;SDS011;30180;44.788;10.366;2023-03-21T14:15:44;11.82;;;3.58;;
44476;SDS011;30180;44.788;10.366;2023-03-21T14:18:22;21.63;;;5.07;;
44476;SDS011;30180;44.788;10.366;2023-03-21T14:21:12;10.90;;;3.83;;
44476;SDS011;30180;44.788;10.366;2023-03-21T14:23:54;14.02;;;4.10;;
44476;SDS011;30180;44.788;10.366;2023-03-21T14:26:24;11.38;;;3.67;;
44476;SDS011;30180;44.788;10.366;2023-03-21T14:28:54;6.55;;;3.17;;
44476;SDS011;30180;44.788;10.366;2023-03-21T14:31:23;9.18;;;3.40;;
44476;SDS011;30180;44.788;10.366;2023-03-21T14:33:54;10.80;;;3.00;;
44476;SDS011;30180;44.788;10.366;2023-03-21T14:36:26;7.47;;;3.30;;
44476;SDS011;30180;44.788;10.366;2023-03-21T14:39:01;8.48;;;3.90;;
44476;SDS011;30180;44.788;10.366;2023-03-21T14:41:33;7.80;;;3.33;;
44476;SDS011;30180;44.788;10.366;2023-03-21T14:44:13;13.43;;;3.63;;
44476;SDS011;30180;44.788;10.366;2023-03-21T14:47:01;13.55;;;3.40;;
44476;SDS011;30180;44.788;10.366;2023-03-21T14:49:30;7.60;;;3.45;;
44476;SDS011;30180;44.788;10.366;2023-03-21T14:52:00;10.73;;;3.45;;
44476;SDS011;30180;44.788;10.366;2023-03-21T14:54:32;7.82;;;3.35;;
44476;SDS011;30180;44.788;10.366;2023-03-21T14:57:02;8.52;;;3.50;;
44476;SDS011;30180;44.788;10.366;2023-03-21T14:59:34;9.75;;;3.03;;
44476;SDS011;30180;44.788;10.366;2023-03-21T15:02:16;9.45;;;3.05;;
44476;SDS011;30180;44.788;10.366;2023-03-21T15:04:48;9.25;;;3.35;;
44476;SDS011;30180;44.788;10.366;2023-03-21T15:07:22;7.93;;;3.17;;
44476;SDS011;30180;44.788;10.366;2023-03-21T15:09:53;9.90;;;3.65;;
44476;SDS011;30180;44.788;10.366;2023-03-21T15:12:21;8.25;;;3.17;;
44476;SDS011;30180;44.788;10.366;2023-03-21T15:14:50;11.68;;;4.03;;
44476;SDS011;30180;44.788;10.366;2023-03-21T15:17:20;9.90;;;3.78;;
44476;SDS011;30180;44.788;10.366;2023-03-21T15:19:49;9.27;;;4.57;;
44476;SDS011;30180;44.788;10.366;2023-03-21T15:22:18;8.68;;;4.90;;